createdAt,value
2022-12-24T00:02:20.173Z,13.30
2022-12-24T00:05:08.081Z,11.88
2022-12-24T00:07:55.808Z,13.35
2022-12-24T00:10:43.013Z,14.05
2022-12-24T00:13:30.274Z,9.33
2022-12-24T00:16:17.729Z,13.60
2022-12-24T00:19:05.365Z,14.63
2022-12-24T00:21:55.643Z,14.25
2022-12-24T00:24:43.126Z,13.62
2022-12-24T00:27:30.390Z,10.20
2022-12-24T00:30:17.639Z,9.90
2022-12-24T00:33:05.079Z,16.70
2022-12-24T00:35:54.096Z,11.70
2022-12-24T00:38:41.600Z,8.00
2022-12-24T00:41:31.678Z,10.55
2022-12-24T00:44:18.951Z,11.88
2022-12-24T00:47:11.785Z,10.13
2022-12-24T00:49:55.282Z,11.60
2022-12-24T00:52:43.454Z,9.98
2022-12-24T00:55:30.459Z,11.53
2022-12-24T00:58:17.698Z,9.03
2022-12-24T01:01:06.276Z,12.82
2022-12-24T01:03:56.565Z,8.88
2022-12-24T01:06:43.597Z,15.30
2022-12-24T01:09:30.885Z,11.90
2022-12-24T01:12:18.589Z,9.80
2022-12-24T01:15:06.754Z,14.55
2022-12-24T01:17:58.334Z,10.10
2022-12-24T01:20:46.181Z,14.78
2022-12-24T01:23:33.620Z,10.98
2022-12-24T01:26:20.924Z,19.15
2022-12-24T01:29:08.148Z,8.65
2022-12-24T01:31:55.372Z,16.80
2022-12-24T01:34:42.996Z,9.88
2022-12-24T01:37:30.160Z,9.93
2022-12-24T01:40:36.530Z,15.58
2022-12-24T01:43:28.167Z,14.03
2022-12-24T01:46:27.643Z,9.95
2022-12-24T01:49:16.877Z,7.65
2022-12-24T01:52:19.749Z,12.07
2022-12-24T01:55:09.946Z,17.32
2022-12-24T01:58:00.250Z,12.80
2022-12-24T02:00:50.772Z,13.43
2022-12-24T02:03:39.202Z,12.33
2022-12-24T02:06:27.440Z,16.25
2022-12-24T02:09:15.333Z,9.40
2022-12-24T02:12:06.467Z,14.25
2022-12-24T02:14:54.897Z,18.55
2022-12-24T02:18:05.144Z,18.30
2022-12-24T02:21:07.569Z,13.08
2022-12-24T02:24:25.317Z,12.03
2022-12-24T02:27:36.674Z,27.02
2022-12-24T02:30:36.185Z,14.60
2022-12-24T02:33:38.443Z,18.15
2022-12-24T02:36:31.789Z,14.20
2022-12-24T02:39:28.550Z,13.08
2022-12-24T02:42:18.840Z,13.43
2022-12-24T02:45:18.504Z,9.78
2022-12-24T02:48:07.788Z,17.07
2022-12-24T02:51:04.371Z,16.40
2022-12-24T02:53:54.683Z,13.53
2022-12-24T02:56:48.322Z,19.75
2022-12-24T02:59:58.520Z,14.78
2022-12-24T03:03:07.946Z,13.43
2022-12-24T03:05:58.232Z,21.70
2022-12-24T03:08:57.766Z,18.57
2022-12-24T03:11:48.133Z,13.40
2022-12-24T03:14:36.729Z,20.02
2022-12-24T03:17:27.773Z,11.97
2022-12-24T03:20:18.493Z,13.90
2022-12-24T03:23:09.576Z,13.22
2022-12-24T03:25:56.725Z,13.53
2022-12-24T03:28:45.595Z,19.27
2022-12-24T03:31:43.786Z,16.07
2022-12-24T03:34:31.542Z,13.40
2022-12-24T03:37:19.272Z,17.00
2022-12-24T03:40:07.481Z,16.07
2022-12-24T03:42:55.027Z,19.35
2022-12-24T03:45:42.653Z,12.13
2022-12-24T03:48:32.928Z,16.65
2022-12-24T03:51:23.968Z,19.65
2022-12-24T03:54:11.183Z,16.30
2022-12-24T03:56:58.760Z,13.90
2022-12-24T03:59:46.035Z,16.25
2022-12-24T04:02:35.077Z,10.05
2022-12-24T04:05:23.268Z,16.40
2022-12-24T04:08:10.435Z,20.65
2022-12-24T04:10:57.807Z,13.25
2022-12-24T04:13:45.164Z,19.10
2022-12-24T04:16:32.471Z,18.32
2022-12-24T04:19:20.032Z,10.68
2022-12-24T04:22:07.438Z,20.90
2022-12-24T04:24:54.850Z,17.12
2022-12-24T04:27:42.281Z,16.80
2022-12-24T04:30:29.530Z,14.45
2022-12-24T04:33:16.966Z,11.28
2022-12-24T04:36:06.411Z,11.70
2022-12-24T04:38:56.463Z,14.75
2022-12-24T04:41:43.968Z,11.25
2022-12-24T04:44:31.379Z,11.25
2022-12-24T04:47:18.409Z,17.20
2022-12-24T04:50:05.863Z,13.00
2022-12-24T04:52:53.165Z,12.85
2022-12-24T04:55:42.196Z,10.38
2022-12-24T04:58:30.117Z,13.65
2022-12-24T05:01:23.500Z,15.72
2022-12-24T05:04:11.204Z,16.00
2022-12-24T05:06:58.787Z,11.83
2022-12-24T05:09:49.151Z,11.55
2022-12-24T05:12:36.377Z,17.25
2022-12-24T05:15:25.464Z,17.52
2022-12-24T05:18:12.940Z,17.90
2022-12-24T05:21:00.210Z,12.90
2022-12-24T05:24:06.307Z,12.50
2022-12-24T05:26:56.631Z,11.95
2022-12-24T05:29:44.075Z,15.75
2022-12-24T05:32:31.507Z,14.28
2022-12-24T05:35:18.933Z,18.57
2022-12-24T05:38:06.111Z,17.62
2022-12-24T05:40:56.527Z,15.03
2022-12-24T05:43:43.792Z,17.00
2022-12-24T05:46:31.040Z,14.05
2022-12-24T05:49:18.435Z,17.37
2022-12-24T05:52:06.046Z,9.03
2022-12-24T05:54:56.266Z,14.05
2022-12-24T05:57:43.396Z,17.25
2022-12-24T06:00:30.720Z,14.35
2022-12-24T06:03:17.804Z,10.65
2022-12-24T06:06:11.070Z,17.62
2022-12-24T06:08:58.893Z,19.35
2022-12-24T06:11:46.031Z,13.80
2022-12-24T06:14:33.255Z,11.25
2022-12-24T06:17:20.411Z,23.65
2022-12-24T06:20:08.436Z,16.00
2022-12-24T06:22:55.843Z,17.15
2022-12-24T06:25:43.245Z,11.28
2022-12-24T06:28:32.434Z,16.93
2022-12-24T06:31:23.854Z,15.72
2022-12-24T06:34:10.917Z,12.63
2022-12-24T06:36:58.276Z,14.45
2022-12-24T06:39:46.935Z,15.72
2022-12-24T06:42:34.178Z,13.30
2022-12-24T06:45:24.285Z,14.98
2022-12-24T06:48:11.687Z,19.05
2022-12-24T06:50:58.911Z,12.53
2022-12-24T06:53:46.443Z,16.00
2022-12-24T06:56:33.702Z,19.17
2022-12-24T06:59:20.930Z,13.35
2022-12-24T07:02:08.277Z,12.63
2022-12-24T07:04:55.792Z,20.00
2022-12-24T07:07:45.144Z,15.18
2022-12-24T07:10:32.528Z,14.60
2022-12-24T07:13:20.044Z,11.05
2022-12-24T07:16:07.917Z,17.87
2022-12-24T07:18:55.119Z,12.18
2022-12-24T07:21:42.454Z,12.05
2022-12-24T07:24:29.574Z,18.10
2022-12-24T07:27:16.934Z,15.58
2022-12-24T07:30:04.841Z,17.27
2022-12-24T07:32:54.673Z,11.53
2022-12-24T07:35:41.732Z,8.00
2022-12-24T07:38:30.110Z,14.93
2022-12-24T07:41:17.379Z,9.65
2022-12-24T07:44:04.849Z,14.30
2022-12-24T07:46:53.892Z,15.25
2022-12-24T07:49:41.021Z,15.48
2022-12-24T07:52:28.463Z,20.27
2022-12-24T07:55:15.624Z,14.65
2022-12-24T07:58:02.804Z,13.15
2022-12-24T08:00:50.377Z,18.17
2022-12-24T08:03:38.030Z,47.70
2022-12-24T08:06:25.402Z,24.63
2022-12-24T08:09:14.147Z,18.55
2022-12-24T08:12:02.897Z,19.60
2022-12-24T08:14:53.179Z,18.17
2022-12-24T08:17:40.754Z,15.48
2022-12-24T08:20:28.223Z,17.10
2022-12-24T08:23:15.492Z,29.75
2022-12-24T08:26:03.084Z,16.17
2022-12-24T08:28:50.441Z,17.45
2022-12-24T08:31:37.976Z,25.68
2022-12-24T08:34:25.609Z,18.02
2022-12-24T08:37:12.827Z,18.48
2022-12-24T08:40:00.427Z,25.20
2022-12-24T08:42:47.760Z,23.02
2022-12-24T08:45:40.681Z,17.32
2022-12-24T08:48:26.471Z,24.50
2022-12-24T08:51:14.029Z,23.67
2022-12-24T08:54:01.113Z,26.60
2022-12-24T08:56:48.540Z,20.25
2022-12-24T08:59:35.669Z,29.75
2022-12-24T09:02:23.601Z,27.00
2022-12-24T09:05:11.840Z,26.87
2022-12-24T09:07:59.982Z,22.35
2022-12-24T09:10:47.471Z,25.60
2022-12-24T09:13:35.113Z,28.40
2022-12-24T09:16:22.991Z,31.95
2022-12-24T09:19:10.259Z,36.40
2022-12-24T09:21:57.710Z,28.50
2022-12-24T09:24:45.160Z,23.55
2022-12-24T09:27:32.988Z,19.60
2022-12-24T09:30:21.060Z,18.95
2022-12-24T09:33:08.484Z,26.73
2022-12-24T09:35:56.086Z,28.25
2022-12-24T09:38:43.433Z,24.70
2022-12-24T09:41:33.794Z,27.52
2022-12-24T09:44:36.275Z,22.05
2022-12-24T09:47:41.827Z,20.97
2022-12-24T09:50:41.225Z,31.45
2022-12-24T09:53:43.636Z,27.60
2022-12-24T09:56:42.145Z,23.25
2022-12-24T09:59:32.447Z,27.35
2022-12-24T10:02:21.045Z,25.05
2022-12-24T10:05:11.994Z,21.17
2022-12-24T10:08:14.616Z,26.55
2022-12-24T10:11:17.444Z,21.82
2022-12-24T10:14:16.848Z,23.85
2022-12-24T10:17:23.551Z,22.73
2022-12-24T10:20:47.377Z,19.48
2022-12-24T10:23:57.134Z,25.85
2022-12-24T10:26:53.586Z,24.32
2022-12-24T10:29:43.813Z,30.43
2022-12-24T10:32:33.498Z,25.25
2022-12-24T10:35:30.442Z,27.45
2022-12-24T10:38:17.640Z,29.12
2022-12-24T10:41:04.981Z,27.35
2022-12-24T10:43:53.215Z,31.42
2022-12-24T10:46:41.401Z,26.50
2022-12-24T10:49:32.230Z,23.75
2022-12-24T10:52:24.948Z,30.97
2022-12-24T10:55:20.911Z,27.85
2022-12-24T10:58:11.448Z,25.77
2022-12-24T11:00:59.051Z,24.85
2022-12-24T11:03:46.492Z,23.10
2022-12-24T11:06:33.696Z,34.40
2022-12-24T11:09:26.957Z,22.17
2022-12-24T11:12:20.418Z,24.02
2022-12-24T11:15:26.317Z,23.55
2022-12-24T11:18:17.071Z,25.08
2022-12-24T11:21:06.715Z,20.10
2022-12-24T11:24:00.344Z,22.60
2022-12-24T11:26:47.658Z,31.35
2022-12-24T11:29:35.119Z,23.42
2022-12-24T11:32:23.948Z,25.23
2022-12-24T11:35:25.348Z,23.15
2022-12-24T11:38:15.360Z,22.77
2022-12-24T11:41:08.973Z,21.65
2022-12-24T11:44:03.172Z,30.25
2022-12-24T11:46:52.099Z,19.80
2022-12-24T11:49:39.462Z,23.42
2022-12-24T11:52:28.335Z,25.08
2022-12-24T11:55:23.427Z,28.15
2022-12-24T11:58:33.363Z,23.50
2022-12-24T12:01:32.752Z,21.68
2022-12-24T12:04:31.984Z,25.45
2022-12-24T12:07:34.013Z,26.37
2022-12-24T12:10:27.553Z,27.27
2022-12-24T12:13:17.922Z,26.20
2022-12-24T12:16:25.044Z,22.52
2022-12-24T12:19:15.277Z,19.45
2022-12-24T12:22:05.269Z,20.25
2022-12-24T12:24:54.616Z,20.95
2022-12-24T12:27:47.998Z,22.02
2022-12-24T12:30:38.134Z,23.42
2022-12-24T12:33:31.512Z,19.85
2022-12-24T12:36:22.204Z,16.57
2022-12-24T12:39:12.465Z,24.23
2022-12-24T12:42:11.965Z,25.55
2022-12-24T12:45:24.605Z,24.52
2022-12-24T12:48:24.415Z,23.38
2022-12-24T12:51:30.077Z,20.25
2022-12-24T12:54:35.213Z,24.92
2022-12-24T12:57:25.573Z,17.73
2022-12-24T13:00:16.136Z,21.90
2022-12-24T13:03:24.549Z,17.57
2022-12-24T13:06:35.883Z,19.45
2022-12-24T13:09:26.377Z,18.77
2022-12-24T13:12:19.855Z,15.30
2022-12-24T13:15:35.964Z,15.98
2022-12-24T13:18:38.796Z,16.55
2022-12-24T13:21:29.137Z,13.72
2022-12-24T13:24:22.143Z,17.87
2022-12-24T13:27:34.134Z,10.08
2022-12-24T13:30:39.791Z,19.90
2022-12-24T13:33:42.289Z,10.78
2022-12-24T13:36:49.276Z,16.15
2022-12-24T13:40:08.921Z,14.35
2022-12-24T13:43:05.609Z,16.90
2022-12-24T13:48:40.281Z,15.63
2022-12-24T13:51:27.970Z,17.92
2022-12-24T13:54:17.906Z,25.10
2022-12-24T13:57:24.922Z,16.42
2022-12-24T14:00:41.508Z,22.52
2022-12-24T14:03:37.969Z,25.85
2022-12-24T14:06:40.264Z,17.52
2022-12-24T14:09:30.028Z,15.95
2022-12-24T14:12:36.225Z,22.75
2022-12-24T14:15:45.624Z,23.35
2022-12-24T14:18:35.843Z,23.42
2022-12-24T14:21:38.320Z,22.95
2022-12-24T14:24:29.052Z,20.97
2022-12-24T14:27:21.062Z,26.50
2022-12-24T14:30:20.968Z,20.43
2022-12-24T14:33:09.486Z,24.32
2022-12-24T14:35:57.205Z,19.50
2022-12-24T14:38:45.985Z,21.07
2022-12-24T14:42:00.295Z,20.05
2022-12-24T14:45:08.600Z,18.57
2022-12-24T14:48:15.925Z,20.17
2022-12-24T14:51:15.322Z,31.68
2022-12-24T14:54:30.983Z,21.73
2022-12-24T14:57:26.693Z,26.02
2022-12-24T15:00:21.949Z,24.82
2022-12-24T15:03:14.984Z,25.43
2022-12-24T15:06:06.324Z,24.23
2022-12-24T15:08:53.996Z,27.45
2022-12-24T15:11:44.354Z,27.27
2022-12-24T15:14:33.851Z,23.67
2022-12-24T15:17:22.517Z,23.42
2022-12-24T15:20:13.019Z,24.32
2022-12-24T15:23:00.518Z,32.93
2022-12-24T15:25:48.060Z,24.12
2022-12-24T15:28:39.796Z,30.85
2022-12-24T15:31:29.348Z,32.85
2022-12-24T15:34:28.130Z,43.75
2022-12-24T15:37:24.529Z,36.20
2022-12-24T15:40:23.316Z,31.42
2022-12-24T15:43:10.804Z,33.30
2022-12-24T15:45:58.331Z,22.05
2022-12-24T15:48:47.098Z,31.35
2022-12-24T15:51:40.264Z,30.30
2022-12-24T15:54:30.364Z,33.78
2022-12-24T15:57:34.678Z,39.70
2022-12-24T16:00:28.634Z,35.08
2022-12-24T16:03:23.345Z,24.63
2022-12-24T16:06:11.981Z,23.32
2022-12-24T16:08:59.433Z,34.15
2022-12-24T16:11:46.336Z,25.48
2022-12-24T16:14:34.697Z,24.12
2022-12-24T16:17:24.919Z,26.68
2022-12-24T16:20:15.128Z,29.98
2022-12-24T16:23:02.202Z,30.15
2022-12-24T16:25:49.390Z,31.27
2022-12-24T16:28:36.840Z,32.25
2022-12-24T16:31:42.030Z,19.62
2022-12-24T16:34:31.483Z,22.45
2022-12-24T16:37:18.748Z,44.98
2022-12-24T16:40:08.344Z,31.05
2022-12-24T16:43:14.550Z,27.42
2022-12-24T16:46:07.196Z,19.55
2022-12-24T16:48:54.410Z,33.55
2022-12-24T16:51:41.674Z,28.75
2022-12-24T16:54:30.024Z,23.83
2022-12-24T16:57:17.550Z,20.85
2022-12-24T17:00:07.254Z,19.30
2022-12-24T17:02:54.968Z,15.48
2022-12-24T17:05:43.775Z,12.78
2022-12-24T17:08:31.025Z,25.57
2022-12-24T17:11:19.770Z,24.18
2022-12-24T17:14:08.747Z,16.87
2022-12-24T17:16:55.542Z,19.48
2022-12-24T17:19:43.057Z,17.95
2022-12-24T17:22:30.360Z,18.95
2022-12-24T17:25:17.748Z,18.70
2022-12-24T17:28:05.054Z,17.50
2022-12-24T17:30:54.228Z,24.20
2022-12-24T17:33:41.824Z,28.60
2022-12-24T17:36:29.138Z,20.85
2022-12-24T17:39:24.043Z,25.17
2022-12-24T17:42:07.191Z,15.65
2022-12-24T17:44:54.490Z,27.82
2022-12-24T17:47:41.916Z,15.98
2022-12-24T17:50:29.283Z,26.17
2022-12-24T17:53:16.626Z,28.98
2022-12-24T17:56:04.315Z,22.82
2022-12-24T17:58:51.480Z,27.02
2022-12-24T18:01:39.007Z,29.92
2022-12-24T18:04:26.538Z,23.30
2022-12-24T18:07:13.734Z,28.65
2022-12-24T18:10:01.273Z,33.63
2022-12-24T18:12:48.587Z,24.43
2022-12-24T18:15:37.964Z,20.08
2022-12-24T18:18:25.452Z,27.98
2022-12-24T18:21:12.982Z,35.95
2022-12-24T18:24:01.343Z,32.13
2022-12-24T18:26:48.831Z,25.52
2022-12-24T18:29:37.931Z,31.17
2022-12-24T18:32:25.317Z,29.75
2022-12-24T18:35:13.046Z,30.35
2022-12-24T18:38:00.113Z,18.85
2022-12-24T18:40:47.669Z,18.35
2022-12-24T18:43:35.424Z,36.15
2022-12-24T18:46:25.484Z,25.60
2022-12-24T18:49:12.952Z,18.90
2022-12-24T18:52:00.420Z,17.52
2022-12-24T18:54:50.508Z,29.23
2022-12-24T18:57:37.780Z,24.57
2022-12-24T19:00:26.049Z,16.48
2022-12-24T19:03:16.388Z,28.12
2022-12-24T19:06:04.497Z,27.17
2022-12-24T19:09:01.729Z,33.05
2022-12-24T19:11:41.428Z,21.45
2022-12-24T19:14:28.614Z,21.73
2022-12-24T19:17:15.895Z,25.48
2022-12-24T19:20:03.137Z,39.80
2022-12-24T19:22:50.763Z,31.30
2022-12-24T19:25:38.256Z,29.60
2022-12-24T19:28:26.156Z,33.42
2022-12-24T19:31:16.632Z,29.70
2022-12-24T19:34:04.002Z,26.65
2022-12-24T19:36:52.777Z,26.25
2022-12-24T19:39:39.858Z,25.60
2022-12-24T19:42:27.451Z,29.02
2022-12-24T19:45:14.887Z,23.47
2022-12-24T19:48:02.002Z,24.47
2022-12-24T19:50:49.179Z,23.27
2022-12-24T19:53:37.747Z,27.10
2022-12-24T19:56:26.419Z,19.00
2022-12-24T19:59:13.594Z,21.45
2022-12-24T20:02:01.311Z,23.95
2022-12-24T20:04:48.844Z,25.50
2022-12-24T20:07:36.287Z,19.73
2022-12-24T20:10:25.196Z,23.42
2022-12-24T20:13:12.608Z,20.30
2022-12-24T20:16:05.888Z,23.15
2022-12-24T20:18:57.887Z,32.33
2022-12-24T20:21:45.452Z,24.92
2022-12-24T20:24:32.501Z,24.72
2022-12-24T20:27:19.612Z,23.80
2022-12-24T20:30:07.554Z,27.95
2022-12-24T20:32:56.211Z,21.60
2022-12-24T20:35:45.994Z,18.42
2022-12-24T20:38:33.176Z,19.55
2022-12-24T20:41:22.956Z,19.40
2022-12-24T20:44:12.132Z,24.72
2022-12-24T20:46:59.854Z,21.02
2022-12-24T20:49:47.313Z,22.65
2022-12-24T20:52:34.545Z,22.98
2022-12-24T20:55:22.633Z,22.67
2022-12-24T20:58:13.210Z,18.15
2022-12-24T21:01:00.724Z,16.87
2022-12-24T21:03:48.308Z,12.60
2022-12-24T21:06:36.326Z,17.20
2022-12-24T21:09:23.757Z,12.75
2022-12-24T21:12:30.446Z,12.63
2022-12-24T21:15:19.440Z,17.48
2022-12-24T21:18:09.105Z,23.20
2022-12-24T21:20:56.419Z,23.42
2022-12-24T21:23:43.629Z,18.27
2022-12-24T21:26:32.016Z,27.07
2022-12-24T21:29:19.370Z,26.15
2022-12-24T21:32:06.520Z,26.35
2022-12-24T21:34:53.892Z,28.23
2022-12-24T21:37:41.561Z,25.05
2022-12-24T21:40:29.084Z,28.05
2022-12-24T21:43:16.625Z,19.65
2022-12-24T21:46:09.282Z,24.67
2022-12-24T21:49:15.503Z,27.17
2022-12-24T21:52:03.105Z,21.37
2022-12-24T21:54:51.232Z,22.25
2022-12-24T21:57:53.692Z,21.23
2022-12-24T22:00:41.286Z,34.92
2022-12-24T22:03:28.551Z,26.97
2022-12-24T22:06:35.588Z,36.38
2022-12-24T22:09:41.229Z,21.40
2022-12-24T22:12:32.076Z,35.05
2022-12-24T22:15:19.598Z,30.72
2022-12-24T22:18:07.789Z,28.55
2022-12-24T22:20:56.100Z,33.05
2022-12-24T22:23:43.286Z,26.82
2022-12-24T22:26:30.850Z,30.70
2022-12-24T22:29:18.516Z,34.48
2022-12-24T22:32:06.164Z,24.07
2022-12-24T22:34:53.736Z,21.15
2022-12-24T22:37:41.195Z,35.23
2022-12-24T22:40:28.592Z,30.30
2022-12-24T22:43:15.985Z,36.83
2022-12-24T22:46:08.717Z,35.88
2022-12-24T22:48:56.202Z,27.98
2022-12-24T22:51:43.587Z,21.27
2022-12-24T22:54:31.195Z,42.67
2022-12-24T22:57:18.812Z,31.95
2022-12-24T23:00:09.219Z,28.10
2022-12-24T23:02:56.587Z,18.60
2022-12-24T23:05:44.243Z,17.00
2022-12-24T23:08:32.931Z,23.15
2022-12-24T23:11:20.050Z,23.70
2022-12-24T23:14:25.408Z,24.32
2022-12-24T23:17:13.230Z,36.00
2022-12-24T23:20:03.911Z,30.17
2022-12-24T23:22:50.901Z,35.30
2022-12-24T23:25:38.650Z,36.40
2022-12-24T23:28:26.000Z,20.95
2022-12-24T23:31:13.866Z,32.85
2022-12-24T23:34:01.775Z,28.40
2022-12-24T23:36:49.210Z,34.45
2022-12-24T23:39:36.497Z,26.80
2022-12-24T23:42:23.937Z,31.87
2022-12-24T23:45:11.587Z,33.92
2022-12-24T23:47:59.003Z,36.90
2022-12-24T23:50:47.464Z,24.07
2022-12-24T23:53:35.288Z,33.42
2022-12-24T23:56:24.841Z,29.42
2022-12-24T23:59:12.355Z,32.50
